sensor_id;sensor_type;location;lat;lon;timestamp;P1;durP1;ratioP1;P2;durP2;ratioP2
59468;SDS011;45277;52.768;18.262;2023-01-31T00:01:22;7.78;;;2.90;;
59468;SDS011;45277;52.768;18.262;2023-01-31T00:02:55;6.60;;;2.67;;
59468;SDS011;45277;52.768;18.262;2023-01-31T00:04:27;12.13;;;2.20;;
59468;SDS011;45277;52.768;18.262;2023-01-31T00:06:09;5.60;;;2.75;;
59468;SDS011;45277;52.768;18.262;2023-01-31T00:07:44;10.10;;;2.45;;
59468;SDS011;45277;52.768;18.262;2023-01-31T00:09:17;7.03;;;2.00;;
59468;SDS011;45277;52.768;18.262;2023-01-31T00:10:49;4.80;;;3.63;;
59468;SDS011;45277;52.768;18.262;2023-01-31T00:12:20;18.02;;;2.85;;
59468;SDS011;45277;52.768;18.262;2023-01-31T00:13:52;10.85;;;2.70;;
59468;SDS011;45277;52.768;18.262;2023-01-31T00:15:24;9.57;;;3.35;;
59468;SDS011;45277;52.768;18.262;2023-01-31T00:16:55;23.05;;;4.18;;
59468;SDS011;45277;52.768;18.262;2023-01-31T00:18:27;7.43;;;2.25;;
59468;SDS011;45277;52.768;18.262;2023-01-31T00:19:59;6.85;;;2.40;;
59468;SDS011;45277;52.768;18.262;2023-01-31T00:21:31;12.80;;;3.95;;
59468;SDS011;45277;52.768;18.262;2023-01-31T00:23:03;5.10;;;2.70;;
59468;SDS011;45277;52.768;18.262;2023-01-31T00:24:34;6.65;;;2.15;;
59468;SDS011;45277;52.768;18.262;2023-01-31T00:26:09;9.23;;;2.30;;
59468;SDS011;45277;52.768;18.262;2023-01-31T00:27:45;7.25;;;2.03;;
59468;SDS011;45277;52.768;18.262;2023-01-31T00:29:16;15.13;;;2.97;;
59468;SDS011;45277;52.768;18.262;2023-01-31T00:30:48;7.28;;;2.90;;
59468;SDS011;45277;52.768;18.262;2023-01-31T00:32:19;9.63;;;2.45;;
59468;SDS011;45277;52.768;18.262;2023-01-31T00:33:51;4.38;;;2.55;;
59468;SDS011;45277;52.768;18.262;2023-01-31T00:35:23;20.38;;;2.70;;
59468;SDS011;45277;52.768;18.262;2023-01-31T00:36:55;10.20;;;3.13;;
59468;SDS011;45277;52.768;18.262;2023-01-31T00:38:27;8.43;;;2.50;;
59468;SDS011;45277;52.768;18.262;2023-01-31T00:39:58;11.63;;;3.20;;
59468;SDS011;45277;52.768;18.262;2023-01-31T00:41:30;10.50;;;2.63;;
59468;SDS011;45277;52.768;18.262;2023-01-31T00:43:03;5.70;;;2.17;;
59468;SDS011;45277;52.768;18.262;2023-01-31T00:44:34;4.90;;;2.50;;
59468;SDS011;45277;52.768;18.262;2023-01-31T00:46:06;9.55;;;3.28;;
59468;SDS011;45277;52.768;18.262;2023-01-31T00:47:37;9.50;;;3.15;;
59468;SDS011;45277;52.768;18.262;2023-01-31T00:49:09;8.63;;;3.10;;
59468;SDS011;45277;52.768;18.262;2023-01-31T00:50:41;8.60;;;2.42;;
59468;SDS011;45277;52.768;18.262;2023-01-31T00:52:12;2.97;;;1.85;;
59468;SDS011;45277;52.768;18.262;2023-01-31T00:53:43;13.18;;;3.60;;
59468;SDS011;45277;52.768;18.262;2023-01-31T00:55:16;8.25;;;2.70;;
59468;SDS011;45277;52.768;18.262;2023-01-31T00:56:47;5.15;;;2.28;;
59468;SDS011;45277;52.768;18.262;2023-01-31T00:58:19;9.88;;;3.13;;
59468;SDS011;45277;52.768;18.262;2023-01-31T00:59:51;6.80;;;2.30;;
59468;SDS011;45277;52.768;18.262;2023-01-31T01:01:23;11.02;;;3.28;;
59468;SDS011;45277;52.768;18.262;2023-01-31T01:02:57;13.30;;;3.25;;
59468;SDS011;45277;52.768;18.262;2023-01-31T01:04:28;8.15;;;3.03;;
59468;SDS011;45277;52.768;18.262;2023-01-31T01:06:00;13.15;;;4.00;;
59468;SDS011;45277;52.768;18.262;2023-01-31T01:07:32;10.00;;;2.92;;
59468;SDS011;45277;52.768;18.262;2023-01-31T01:09:03;9.90;;;2.72;;
59468;SDS011;45277;52.768;18.262;2023-01-31T01:10:35;11.52;;;2.83;;
59468;SDS011;45277;52.768;18.262;2023-01-31T01:12:06;10.25;;;3.17;;
59468;SDS011;45277;52.768;18.262;2023-01-31T01:13:38;6.72;;;2.17;;
59468;SDS011;45277;52.768;18.262;2023-01-31T01:15:10;10.25;;;3.63;;
59468;SDS011;45277;52.768;18.262;2023-01-31T01:16:41;7.95;;;2.40;;
59468;SDS011;45277;52.768;18.262;2023-01-31T01:18:13;5.20;;;2.55;;
59468;SDS011;45277;52.768;18.262;2023-01-31T01:19:45;9.00;;;3.00;;
59468;SDS011;45277;52.768;18.262;2023-01-31T01:21:19;7.40;;;2.42;;
59468;SDS011;45277;52.768;18.262;2023-01-31T01:22:52;12.13;;;2.47;;
59468;SDS011;45277;52.768;18.262;2023-01-31T01:24:24;6.45;;;3.28;;
59468;SDS011;45277;52.768;18.262;2023-01-31T01:25:56;2.75;;;2.10;;
59468;SDS011;45277;52.768;18.262;2023-01-31T01:27:28;8.75;;;2.78;;
59468;SDS011;45277;52.768;18.262;2023-01-31T01:29:01;10.13;;;3.08;;
59468;SDS011;45277;52.768;18.262;2023-01-31T01:30:33;8.50;;;2.50;;
59468;SDS011;45277;52.768;18.262;2023-01-31T01:32:07;11.23;;;4.28;;
59468;SDS011;45277;52.768;18.262;2023-01-31T01:33:38;6.55;;;2.30;;
59468;SDS011;45277;52.768;18.262;2023-01-31T01:35:09;12.98;;;3.80;;
59468;SDS011;45277;52.768;18.262;2023-01-31T01:36:41;8.43;;;2.10;;
59468;SDS011;45277;52.768;18.262;2023-01-31T01:38:13;5.78;;;2.08;;
59468;SDS011;45277;52.768;18.262;2023-01-31T01:39:45;11.60;;;2.97;;
59468;SDS011;45277;52.768;18.262;2023-01-31T01:41:18;11.95;;;3.53;;
59468;SDS011;45277;52.768;18.262;2023-01-31T01:42:50;6.00;;;2.30;;
59468;SDS011;45277;52.768;18.262;2023-01-31T01:46:19;9.13;;;2.72;;
59468;SDS011;45277;52.768;18.262;2023-01-31T01:47:52;16.63;;;6.88;;
59468;SDS011;45277;52.768;18.262;2023-01-31T01:49:30;16.15;;;5.70;;
59468;SDS011;45277;52.768;18.262;2023-01-31T01:51:05;11.05;;;4.28;;
59468;SDS011;45277;52.768;18.262;2023-01-31T01:52:38;3.13;;;2.17;;
59468;SDS011;45277;52.768;18.262;2023-01-31T01:54:21;7.38;;;3.22;;
59468;SDS011;45277;52.768;18.262;2023-01-31T01:56:02;20.38;;;3.60;;
59468;SDS011;45277;52.768;18.262;2023-01-31T01:57:40;16.02;;;4.18;;
59468;SDS011;45277;52.768;18.262;2023-01-31T01:59:18;10.35;;;2.92;;
59468;SDS011;45277;52.768;18.262;2023-01-31T02:03:38;28.20;;;3.28;;
59468;SDS011;45277;52.768;18.262;2023-01-31T02:05:11;8.88;;;3.67;;
59468;SDS011;45277;52.768;18.262;2023-01-31T02:06:46;5.78;;;2.63;;
59468;SDS011;45277;52.768;18.262;2023-01-31T02:08:19;6.68;;;2.38;;
59468;SDS011;45277;52.768;18.262;2023-01-31T02:11:46;4.18;;;1.83;;
59468;SDS011;45277;52.768;18.262;2023-01-31T02:13:18;5.07;;;2.30;;
59468;SDS011;45277;52.768;18.262;2023-01-31T02:14:51;9.68;;;2.80;;
59468;SDS011;45277;52.768;18.262;2023-01-31T02:16:23;12.88;;;2.40;;
59468;SDS011;45277;52.768;18.262;2023-01-31T02:17:54;8.05;;;2.55;;
59468;SDS011;45277;52.768;18.262;2023-01-31T02:19:35;5.78;;;2.50;;
59468;SDS011;45277;52.768;18.262;2023-01-31T02:28:59;4.03;;;1.90;;
59468;SDS011;45277;52.768;18.262;2023-01-31T02:35:44;7.78;;;2.55;;
59468;SDS011;45277;52.768;18.262;2023-01-31T02:38:15;6.93;;;2.15;;
59468;SDS011;45277;52.768;18.262;2023-01-31T02:44:27;12.77;;;2.55;;
59468;SDS011;45277;52.768;18.262;2023-01-31T02:46:54;7.47;;;2.45;;
59468;SDS011;45277;52.768;18.262;2023-01-31T02:50:29;6.10;;;2.75;;
59468;SDS011;45277;52.768;18.262;2023-01-31T02:53:55;8.45;;;2.20;;
59468;SDS011;45277;52.768;18.262;2023-01-31T02:55:38;5.22;;;2.40;;
59468;SDS011;45277;52.768;18.262;2023-01-31T02:57:32;3.50;;;2.97;;
59468;SDS011;45277;52.768;18.262;2023-01-31T02:59:08;7.35;;;3.30;;
59468;SDS011;45277;52.768;18.262;2023-01-31T03:00:52;17.42;;;6.85;;
59468;SDS011;45277;52.768;18.262;2023-01-31T03:02:28;9.57;;;2.90;;
59468;SDS011;45277;52.768;18.262;2023-01-31T03:04:07;11.07;;;2.40;;
59468;SDS011;45277;52.768;18.262;2023-01-31T03:05:40;2.85;;;1.65;;
59468;SDS011;45277;52.768;18.262;2023-01-31T03:07:22;3.78;;;1.98;;
59468;SDS011;45277;52.768;18.262;2023-01-31T03:08:58;3.70;;;2.55;;
59468;SDS011;45277;52.768;18.262;2023-01-31T03:14:24;4.63;;;2.70;;
59468;SDS011;45277;52.768;18.262;2023-01-31T03:16:30;8.32;;;2.47;;
59468;SDS011;45277;52.768;18.262;2023-01-31T03:18:32;10.93;;;3.05;;
59468;SDS011;45277;52.768;18.262;2023-01-31T03:21:53;2.83;;;1.63;;
59468;SDS011;45277;52.768;18.262;2023-01-31T03:23:30;5.30;;;2.35;;
59468;SDS011;45277;52.768;18.262;2023-01-31T03:25:06;6.97;;;2.20;;
59468;SDS011;45277;52.768;18.262;2023-01-31T03:26:40;10.48;;;3.40;;
59468;SDS011;45277;52.768;18.262;2023-01-31T03:28:13;9.55;;;3.13;;
59468;SDS011;45277;52.768;18.262;2023-01-31T03:29:48;9.60;;;2.35;;
59468;SDS011;45277;52.768;18.262;2023-01-31T03:31:24;5.55;;;2.35;;
59468;SDS011;45277;52.768;18.262;2023-01-31T03:33:00;5.63;;;1.90;;
59468;SDS011;45277;52.768;18.262;2023-01-31T03:34:36;4.22;;;2.13;;
59468;SDS011;45277;52.768;18.262;2023-01-31T03:37:56;5.80;;;2.25;;
59468;SDS011;45277;52.768;18.262;2023-01-31T03:41:18;7.82;;;2.10;;
59468;SDS011;45277;52.768;18.262;2023-01-31T03:43:04;9.63;;;2.15;;
59468;SDS011;45277;52.768;18.262;2023-01-31T03:45:01;11.93;;;2.88;;
59468;SDS011;45277;52.768;18.262;2023-01-31T03:46:40;6.68;;;2.97;;
59468;SDS011;45277;52.768;18.262;2023-01-31T03:48:16;2.90;;;1.75;;
59468;SDS011;45277;52.768;18.262;2023-01-31T03:49:53;5.75;;;2.10;;
59468;SDS011;45277;52.768;18.262;2023-01-31T03:51:27;10.75;;;2.47;;
59468;SDS011;45277;52.768;18.262;2023-01-31T03:53:04;3.10;;;1.75;;
59468;SDS011;45277;52.768;18.262;2023-01-31T03:54:43;8.57;;;2.93;;
59468;SDS011;45277;52.768;18.262;2023-01-31T03:58:43;6.88;;;1.95;;
59468;SDS011;45277;52.768;18.262;2023-01-31T04:00:20;6.03;;;2.30;;
59468;SDS011;45277;52.768;18.262;2023-01-31T04:01:54;7.57;;;2.67;;
59468;SDS011;45277;52.768;18.262;2023-01-31T04:03:39;7.00;;;2.47;;
59468;SDS011;45277;52.768;18.262;2023-01-31T04:05:15;5.93;;;2.38;;
59468;SDS011;45277;52.768;18.262;2023-01-31T04:06:49;4.60;;;2.22;;
59468;SDS011;45277;52.768;18.262;2023-01-31T04:08:21;2.72;;;1.77;;
59468;SDS011;45277;52.768;18.262;2023-01-31T04:09:52;7.30;;;2.60;;
59468;SDS011;45277;52.768;18.262;2023-01-31T04:11:24;4.13;;;2.08;;
59468;SDS011;45277;52.768;18.262;2023-01-31T04:12:57;5.72;;;2.28;;
59468;SDS011;45277;52.768;18.262;2023-01-31T04:14:29;5.60;;;2.30;;
59468;SDS011;45277;52.768;18.262;2023-01-31T04:16:00;4.88;;;1.90;;
59468;SDS011;45277;52.768;18.262;2023-01-31T04:17:32;2.88;;;2.03;;
59468;SDS011;45277;52.768;18.262;2023-01-31T04:19:04;7.40;;;1.83;;
59468;SDS011;45277;52.768;18.262;2023-01-31T04:20:35;5.50;;;2.50;;
59468;SDS011;45277;52.768;18.262;2023-01-31T04:22:07;9.18;;;2.60;;
59468;SDS011;45277;52.768;18.262;2023-01-31T04:23:38;6.38;;;2.38;;
59468;SDS011;45277;52.768;18.262;2023-01-31T04:25:10;7.43;;;2.42;;
59468;SDS011;45277;52.768;18.262;2023-01-31T04:26:42;9.00;;;5.32;;
59468;SDS011;45277;52.768;18.262;2023-01-31T04:28:13;3.70;;;1.88;;
59468;SDS011;45277;52.768;18.262;2023-01-31T04:29:45;4.15;;;2.35;;
59468;SDS011;45277;52.768;18.262;2023-01-31T04:31:16;2.42;;;2.10;;
59468;SDS011;45277;52.768;18.262;2023-01-31T04:32:48;4.45;;;3.25;;
59468;SDS011;45277;52.768;18.262;2023-01-31T04:34:19;5.05;;;3.05;;
59468;SDS011;45277;52.768;18.262;2023-01-31T04:35:51;10.38;;;2.00;;
59468;SDS011;45277;52.768;18.262;2023-01-31T04:37:23;7.47;;;3.13;;
59468;SDS011;45277;52.768;18.262;2023-01-31T04:38:54;5.68;;;3.05;;
59468;SDS011;45277;52.768;18.262;2023-01-31T04:40:26;10.07;;;2.67;;
59468;SDS011;45277;52.768;18.262;2023-01-31T04:41:57;8.40;;;2.47;;
59468;SDS011;45277;52.768;18.262;2023-01-31T04:43:29;2.88;;;1.65;;
59468;SDS011;45277;52.768;18.262;2023-01-31T04:45:00;6.68;;;2.28;;
59468;SDS011;45277;52.768;18.262;2023-01-31T04:46:32;7.38;;;2.65;;
59468;SDS011;45277;52.768;18.262;2023-01-31T04:48:03;8.60;;;2.03;;
59468;SDS011;45277;52.768;18.262;2023-01-31T04:49:35;7.13;;;2.50;;
59468;SDS011;45277;52.768;18.262;2023-01-31T04:51:07;4.00;;;2.10;;
59468;SDS011;45277;52.768;18.262;2023-01-31T04:52:38;8.15;;;2.15;;
59468;SDS011;45277;52.768;18.262;2023-01-31T04:54:10;4.68;;;1.90;;
59468;SDS011;45277;52.768;18.262;2023-01-31T04:55:41;6.15;;;1.92;;
59468;SDS011;45277;52.768;18.262;2023-01-31T04:57:12;8.93;;;2.47;;
59468;SDS011;45277;52.768;18.262;2023-01-31T04:58:44;5.68;;;2.78;;
59468;SDS011;45277;52.768;18.262;2023-01-31T05:00:17;3.90;;;1.80;;
59468;SDS011;45277;52.768;18.262;2023-01-31T05:01:49;11.45;;;2.63;;
59468;SDS011;45277;52.768;18.262;2023-01-31T05:03:21;4.80;;;2.17;;
59468;SDS011;45277;52.768;18.262;2023-01-31T05:04:52;6.00;;;1.73;;
59468;SDS011;45277;52.768;18.262;2023-01-31T05:06:24;2.55;;;1.80;;
59468;SDS011;45277;52.768;18.262;2023-01-31T05:07:56;6.03;;;2.92;;
59468;SDS011;45277;52.768;18.262;2023-01-31T05:09:27;6.72;;;2.35;;
59468;SDS011;45277;52.768;18.262;2023-01-31T05:10:59;6.22;;;2.08;;
59468;SDS011;45277;52.768;18.262;2023-01-31T05:12:32;6.55;;;2.55;;
59468;SDS011;45277;52.768;18.262;2023-01-31T05:14:03;4.38;;;1.60;;
59468;SDS011;45277;52.768;18.262;2023-01-31T05:15:35;3.22;;;1.80;;
59468;SDS011;45277;52.768;18.262;2023-01-31T05:17:08;2.72;;;1.70;;
59468;SDS011;45277;52.768;18.262;2023-01-31T05:18:39;2.47;;;1.50;;
59468;SDS011;45277;52.768;18.262;2023-01-31T05:20:10;6.13;;;2.38;;
59468;SDS011;45277;52.768;18.262;2023-01-31T05:21:42;2.53;;;2.33;;
59468;SDS011;45277;52.768;18.262;2023-01-31T05:23:28;7.47;;;2.40;;
59468;SDS011;45277;52.768;18.262;2023-01-31T05:25:00;10.77;;;3.30;;
59468;SDS011;45277;52.768;18.262;2023-01-31T05:26:32;4.88;;;2.42;;
59468;SDS011;45277;52.768;18.262;2023-01-31T05:28:03;3.33;;;1.98;;
59468;SDS011;45277;52.768;18.262;2023-01-31T05:29:35;13.60;;;2.55;;
59468;SDS011;45277;52.768;18.262;2023-01-31T05:31:07;8.98;;;3.10;;
59468;SDS011;45277;52.768;18.262;2023-01-31T05:32:39;5.18;;;2.75;;
59468;SDS011;45277;52.768;18.262;2023-01-31T05:34:14;5.25;;;2.63;;
59468;SDS011;45277;52.768;18.262;2023-01-31T05:35:46;3.70;;;2.38;;
59468;SDS011;45277;52.768;18.262;2023-01-31T05:37:18;14.93;;;4.35;;
59468;SDS011;45277;52.768;18.262;2023-01-31T05:38:49;3.70;;;2.28;;
59468;SDS011;45277;52.768;18.262;2023-01-31T05:40:21;13.60;;;4.93;;
59468;SDS011;45277;52.768;18.262;2023-01-31T05:41:53;15.68;;;3.25;;
59468;SDS011;45277;52.768;18.262;2023-01-31T05:43:24;9.98;;;3.55;;
59468;SDS011;45277;52.768;18.262;2023-01-31T05:44:56;15.57;;;4.18;;
59468;SDS011;45277;52.768;18.262;2023-01-31T05:46:28;8.43;;;3.22;;
59468;SDS011;45277;52.768;18.262;2023-01-31T05:47:59;5.00;;;2.00;;
59468;SDS011;45277;52.768;18.262;2023-01-31T05:49:31;7.97;;;2.85;;
59468;SDS011;45277;52.768;18.262;2023-01-31T05:51:03;7.22;;;2.83;;
59468;SDS011;45277;52.768;18.262;2023-01-31T05:52:35;9.13;;;2.97;;
59468;SDS011;45277;52.768;18.262;2023-01-31T05:54:07;59.10;;;5.45;;
59468;SDS011;45277;52.768;18.262;2023-01-31T05:55:43;11.52;;;2.50;;
59468;SDS011;45277;52.768;18.262;2023-01-31T05:57:15;7.63;;;2.20;;
59468;SDS011;45277;52.768;18.262;2023-01-31T05:58:47;11.63;;;3.47;;
59468;SDS011;45277;52.768;18.262;2023-01-31T06:00:20;10.75;;;3.58;;
59468;SDS011;45277;52.768;18.262;2023-01-31T06:01:52;13.43;;;4.15;;
59468;SDS011;45277;52.768;18.262;2023-01-31T06:03:24;13.18;;;5.55;;
59468;SDS011;45277;52.768;18.262;2023-01-31T06:04:56;25.65;;;7.57;;
59468;SDS011;45277;52.768;18.262;2023-01-31T06:06:27;8.27;;;4.03;;
59468;SDS011;45277;52.768;18.262;2023-01-31T06:07:59;12.07;;;3.97;;
59468;SDS011;45277;52.768;18.262;2023-01-31T06:09:30;11.73;;;3.13;;
59468;SDS011;45277;52.768;18.262;2023-01-31T06:11:03;16.55;;;4.82;;
59468;SDS011;45277;52.768;18.262;2023-01-31T06:12:35;30.40;;;8.25;;
59468;SDS011;45277;52.768;18.262;2023-01-31T06:14:07;35.85;;;11.48;;
59468;SDS011;45277;52.768;18.262;2023-01-31T06:15:45;22.20;;;7.82;;
59468;SDS011;45277;52.768;18.262;2023-01-31T06:17:16;24.23;;;6.57;;
59468;SDS011;45277;52.768;18.262;2023-01-31T06:18:48;10.75;;;5.75;;
59468;SDS011;45277;52.768;18.262;2023-01-31T06:20:19;10.40;;;3.80;;
59468;SDS011;45277;52.768;18.262;2023-01-31T06:21:51;20.52;;;6.07;;
59468;SDS011;45277;52.768;18.262;2023-01-31T06:23:23;21.40;;;5.35;;
59468;SDS011;45277;52.768;18.262;2023-01-31T06:24:54;22.00;;;6.47;;
59468;SDS011;45277;52.768;18.262;2023-01-31T06:26:26;10.45;;;3.80;;
59468;SDS011;45277;52.768;18.262;2023-01-31T06:27:58;14.23;;;4.63;;
59468;SDS011;45277;52.768;18.262;2023-01-31T06:29:29;9.05;;;4.60;;
59468;SDS011;45277;52.768;18.262;2023-01-31T06:31:05;15.52;;;4.20;;
59468;SDS011;45277;52.768;18.262;2023-01-31T06:32:37;17.88;;;6.97;;
59468;SDS011;45277;52.768;18.262;2023-01-31T06:34:09;18.55;;;7.13;;
59468;SDS011;45277;52.768;18.262;2023-01-31T06:35:41;23.95;;;6.35;;
59468;SDS011;45277;52.768;18.262;2023-01-31T06:37:12;10.43;;;3.67;;
59468;SDS011;45277;52.768;18.262;2023-01-31T06:38:47;12.90;;;4.28;;
59468;SDS011;45277;52.768;18.262;2023-01-31T06:40:19;4.03;;;2.03;;
59468;SDS011;45277;52.768;18.262;2023-01-31T06:41:51;14.77;;;4.50;;
59468;SDS011;45277;52.768;18.262;2023-01-31T06:43:22;22.70;;;6.57;;
59468;SDS011;45277;52.768;18.262;2023-01-31T06:44:54;20.70;;;6.82;;
59468;SDS011;45277;52.768;18.262;2023-01-31T06:46:25;15.48;;;6.90;;
59468;SDS011;45277;52.768;18.262;2023-01-31T06:47:57;16.75;;;5.72;;
59468;SDS011;45277;52.768;18.262;2023-01-31T06:49:28;19.42;;;7.28;;
59468;SDS011;45277;52.768;18.262;2023-01-31T06:51:00;13.07;;;4.90;;
59468;SDS011;45277;52.768;18.262;2023-01-31T06:52:32;9.23;;;4.00;;
59468;SDS011;45277;52.768;18.262;2023-01-31T06:54:04;10.75;;;5.07;;
59468;SDS011;45277;52.768;18.262;2023-01-31T06:55:35;10.70;;;3.58;;
59468;SDS011;45277;52.768;18.262;2023-01-31T06:57:07;24.60;;;9.18;;
59468;SDS011;45277;52.768;18.262;2023-01-31T06:58:39;19.05;;;7.15;;
59468;SDS011;45277;52.768;18.262;2023-01-31T07:00:11;17.30;;;4.85;;
59468;SDS011;45277;52.768;18.262;2023-01-31T07:01:43;36.58;;;11.65;;
59468;SDS011;45277;52.768;18.262;2023-01-31T07:03:15;33.40;;;10.98;;
59468;SDS011;45277;52.768;18.262;2023-01-31T07:04:48;41.50;;;10.63;;
59468;SDS011;45277;52.768;18.262;2023-01-31T07:06:20;16.85;;;5.82;;
59468;SDS011;45277;52.768;18.262;2023-01-31T07:07:52;17.35;;;5.47;;
59468;SDS011;45277;52.768;18.262;2023-01-31T07:09:24;34.45;;;9.95;;
59468;SDS011;45277;52.768;18.262;2023-01-31T07:10:56;44.72;;;14.07;;
59468;SDS011;45277;52.768;18.262;2023-01-31T07:12:28;29.60;;;9.85;;
59468;SDS011;45277;52.768;18.262;2023-01-31T07:13:59;12.88;;;6.85;;
59468;SDS011;45277;52.768;18.262;2023-01-31T07:15:31;4.88;;;2.65;;
59468;SDS011;45277;52.768;18.262;2023-01-31T07:17:03;20.55;;;8.13;;
59468;SDS011;45277;52.768;18.262;2023-01-31T07:18:35;13.48;;;4.13;;
59468;SDS011;45277;52.768;18.262;2023-01-31T07:20:06;22.13;;;8.25;;
59468;SDS011;45277;52.768;18.262;2023-01-31T07:21:39;22.58;;;8.52;;
59468;SDS011;45277;52.768;18.262;2023-01-31T07:23:10;27.98;;;8.55;;
59468;SDS011;45277;52.768;18.262;2023-01-31T07:24:41;18.17;;;6.22;;
59468;SDS011;45277;52.768;18.262;2023-01-31T07:26:13;46.47;;;12.40;;
59468;SDS011;45277;52.768;18.262;2023-01-31T07:27:45;16.48;;;3.80;;
59468;SDS011;45277;52.768;18.262;2023-01-31T07:29:16;18.42;;;6.85;;
59468;SDS011;45277;52.768;18.262;2023-01-31T07:30:48;40.28;;;10.88;;
59468;SDS011;45277;52.768;18.262;2023-01-31T07:32:21;23.27;;;6.47;;
59468;SDS011;45277;52.768;18.262;2023-01-31T07:33:52;43.67;;;13.68;;
59468;SDS011;45277;52.768;18.262;2023-01-31T07:35:24;21.70;;;8.68;;
59468;SDS011;45277;52.768;18.262;2023-01-31T07:36:55;38.65;;;11.88;;
59468;SDS011;45277;52.768;18.262;2023-01-31T07:38:27;54.78;;;16.98;;
59468;SDS011;45277;52.768;18.262;2023-01-31T07:39:58;21.95;;;7.93;;
59468;SDS011;45277;52.768;18.262;2023-01-31T07:41:30;32.38;;;13.73;;
59468;SDS011;45277;52.768;18.262;2023-01-31T07:43:01;32.72;;;11.15;;
59468;SDS011;45277;52.768;18.262;2023-01-31T07:44:33;20.90;;;9.30;;
59468;SDS011;45277;52.768;18.262;2023-01-31T07:46:05;18.77;;;8.80;;
59468;SDS011;45277;52.768;18.262;2023-01-31T07:47:40;12.60;;;5.05;;
59468;SDS011;45277;52.768;18.262;2023-01-31T07:49:12;15.32;;;7.32;;
59468;SDS011;45277;52.768;18.262;2023-01-31T07:50:44;15.18;;;4.35;;
59468;SDS011;45277;52.768;18.262;2023-01-31T07:52:15;9.40;;;5.25;;
59468;SDS011;45277;52.768;18.262;2023-01-31T07:53:47;10.02;;;4.40;;
59468;SDS011;45277;52.768;18.262;2023-01-31T07:55:18;19.42;;;6.53;;
59468;SDS011;45277;52.768;18.262;2023-01-31T07:56:50;10.80;;;5.22;;
59468;SDS011;45277;52.768;18.262;2023-01-31T07:58:21;9.43;;;5.13;;
59468;SDS011;45277;52.768;18.262;2023-01-31T07:59:53;7.43;;;4.72;;
59468;SDS011;45277;52.768;18.262;2023-01-31T08:01:25;7.88;;;4.43;;
59468;SDS011;45277;52.768;18.262;2023-01-31T08:03:33;4.05;;;2.72;;
59468;SDS011;45277;52.768;18.262;2023-01-31T08:05:07;9.63;;;3.78;;
59468;SDS011;45277;52.768;18.262;2023-01-31T08:06:41;10.35;;;3.63;;
59468;SDS011;45277;52.768;18.262;2023-01-31T08:08:14;8.82;;;4.50;;
59468;SDS011;45277;52.768;18.262;2023-01-31T08:09:45;9.18;;;3.90;;
59468;SDS011;45277;52.768;18.262;2023-01-31T08:11:19;11.35;;;3.92;;
59468;SDS011;45277;52.768;18.262;2023-01-31T08:12:51;9.07;;;4.15;;
59468;SDS011;45277;52.768;18.262;2023-01-31T08:14:22;6.45;;;3.25;;
59468;SDS011;45277;52.768;18.262;2023-01-31T08:15:55;14.68;;;4.53;;
59468;SDS011;45277;52.768;18.262;2023-01-31T08:17:27;6.38;;;2.97;;
59468;SDS011;45277;52.768;18.262;2023-01-31T08:18:58;13.15;;;4.35;;
59468;SDS011;45277;52.768;18.262;2023-01-31T08:20:29;9.27;;;4.68;;
59468;SDS011;45277;52.768;18.262;2023-01-31T08:22:02;13.40;;;4.40;;
59468;SDS011;45277;52.768;18.262;2023-01-31T08:23:37;12.43;;;4.68;;
59468;SDS011;45277;52.768;18.262;2023-01-31T08:25:10;8.15;;;3.90;;
59468;SDS011;45277;52.768;18.262;2023-01-31T08:26:42;10.25;;;3.75;;
59468;SDS011;45277;52.768;18.262;2023-01-31T08:28:13;4.95;;;2.58;;
59468;SDS011;45277;52.768;18.262;2023-01-31T08:29:45;7.55;;;3.75;;
59468;SDS011;45277;52.768;18.262;2023-01-31T08:31:20;5.82;;;3.25;;
59468;SDS011;45277;52.768;18.262;2023-01-31T08:32:54;10.40;;;3.55;;
59468;SDS011;45277;52.768;18.262;2023-01-31T08:34:25;10.77;;;4.53;;
59468;SDS011;45277;52.768;18.262;2023-01-31T08:36:07;11.38;;;3.50;;
59468;SDS011;45277;52.768;18.262;2023-01-31T08:37:43;12.18;;;4.40;;
59468;SDS011;45277;52.768;18.262;2023-01-31T08:39:15;4.97;;;3.42;;
59468;SDS011;45277;52.768;18.262;2023-01-31T08:40:47;7.38;;;3.42;;
59468;SDS011;45277;52.768;18.262;2023-01-31T08:42:19;10.25;;;4.75;;
59468;SDS011;45277;52.768;18.262;2023-01-31T08:43:51;9.55;;;4.03;;
59468;SDS011;45277;52.768;18.262;2023-01-31T08:45:24;9.77;;;4.43;;
59468;SDS011;45277;52.768;18.262;2023-01-31T08:46:55;8.75;;;3.30;;
59468;SDS011;45277;52.768;18.262;2023-01-31T08:48:30;6.43;;;3.28;;
59468;SDS011;45277;52.768;18.262;2023-01-31T08:50:04;8.18;;;3.00;;
59468;SDS011;45277;52.768;18.262;2023-01-31T08:51:37;10.32;;;3.60;;
59468;SDS011;45277;52.768;18.262;2023-01-31T08:53:09;8.10;;;3.92;;
59468;SDS011;45277;52.768;18.262;2023-01-31T08:54:40;14.70;;;3.35;;
59468;SDS011;45277;52.768;18.262;2023-01-31T08:56:12;21.92;;;7.63;;
59468;SDS011;45277;52.768;18.262;2023-01-31T08:57:44;17.05;;;5.63;;
59468;SDS011;45277;52.768;18.262;2023-01-31T08:59:17;18.33;;;5.85;;
59468;SDS011;45277;52.768;18.262;2023-01-31T09:00:48;11.43;;;5.05;;
59468;SDS011;45277;52.768;18.262;2023-01-31T09:02:20;8.55;;;3.67;;
59468;SDS011;45277;52.768;18.262;2023-01-31T09:03:52;15.65;;;5.50;;
59468;SDS011;45277;52.768;18.262;2023-01-31T09:05:27;14.77;;;5.38;;
59468;SDS011;45277;52.768;18.262;2023-01-31T09:06:59;10.18;;;4.50;;
59468;SDS011;45277;52.768;18.262;2023-01-31T09:08:31;11.25;;;4.07;;
59468;SDS011;45277;52.768;18.262;2023-01-31T09:10:03;12.77;;;4.30;;
59468;SDS011;45277;52.768;18.262;2023-01-31T09:11:35;11.48;;;5.80;;
59468;SDS011;45277;52.768;18.262;2023-01-31T09:13:06;14.45;;;5.18;;
59468;SDS011;45277;52.768;18.262;2023-01-31T09:14:38;8.02;;;3.13;;
59468;SDS011;45277;52.768;18.262;2023-01-31T09:16:10;14.85;;;5.13;;
59468;SDS011;45277;52.768;18.262;2023-01-31T09:17:44;12.80;;;4.93;;
59468;SDS011;45277;52.768;18.262;2023-01-31T09:19:15;10.35;;;4.57;;
59468;SDS011;45277;52.768;18.262;2023-01-31T09:20:47;10.15;;;4.25;;
59468;SDS011;45277;52.768;18.262;2023-01-31T09:22:19;14.15;;;6.30;;
59468;SDS011;45277;52.768;18.262;2023-01-31T09:23:54;11.93;;;4.78;;
59468;SDS011;45277;52.768;18.262;2023-01-31T09:25:27;12.77;;;6.05;;
59468;SDS011;45277;52.768;18.262;2023-01-31T09:26:59;23.15;;;7.80;;
59468;SDS011;45277;52.768;18.262;2023-01-31T09:28:30;30.15;;;7.80;;
59468;SDS011;45277;52.768;18.262;2023-01-31T09:30:06;12.95;;;4.85;;
59468;SDS011;45277;52.768;18.262;2023-01-31T09:31:40;22.60;;;8.75;;
59468;SDS011;45277;52.768;18.262;2023-01-31T09:33:11;11.65;;;4.78;;
59468;SDS011;45277;52.768;18.262;2023-01-31T09:34:43;18.20;;;7.25;;
59468;SDS011;45277;52.768;18.262;2023-01-31T09:36:18;16.17;;;5.90;;
59468;SDS011;45277;52.768;18.262;2023-01-31T09:37:51;23.48;;;8.10;;
59468;SDS011;45277;52.768;18.262;2023-01-31T09:39:23;16.42;;;6.32;;
59468;SDS011;45277;52.768;18.262;2023-01-31T09:40:56;16.50;;;7.05;;
59468;SDS011;45277;52.768;18.262;2023-01-31T09:42:33;17.38;;;6.28;;
59468;SDS011;45277;52.768;18.262;2023-01-31T09:44:34;18.83;;;6.40;;
59468;SDS011;45277;52.768;18.262;2023-01-31T09:46:10;11.50;;;5.95;;
59468;SDS011;45277;52.768;18.262;2023-01-31T09:47:46;9.57;;;3.70;;
59468;SDS011;45277;52.768;18.262;2023-01-31T09:49:31;16.88;;;6.30;;
59468;SDS011;45277;52.768;18.262;2023-01-31T09:51:08;14.30;;;5.90;;
59468;SDS011;45277;52.768;18.262;2023-01-31T09:52:42;10.27;;;4.20;;